createdAt,value
2023-05-17T00:12:29.611Z,1.60
2023-05-17T00:14:56.986Z,1.05
2023-05-17T00:17:24.572Z,1.58
2023-05-17T00:22:41.159Z,1.70
2023-05-17T00:25:08.356Z,1.33
2023-05-17T00:27:35.470Z,1.45
2023-05-17T00:30:02.611Z,1.58
2023-05-17T00:32:29.824Z,1.50
2023-05-17T00:34:57.163Z,1.67
2023-05-17T00:37:24.353Z,2.00
2023-05-17T00:39:51.757Z,1.60
2023-05-17T00:44:54.364Z,1.85
2023-05-17T00:55:21.414Z,1.52
2023-05-17T00:57:49.318Z,1.90
2023-05-17T02:02:54.179Z,1.65
2023-05-17T03:52:35.626Z,1.70
2023-05-17T03:55:03.116Z,2.47
2023-05-17T03:57:30.129Z,1.63
2023-05-17T03:59:57.592Z,1.80
2023-05-17T04:02:24.685Z,2.22
2023-05-17T04:10:49.616Z,1.90
2023-05-17T04:13:17.024Z,2.15
2023-05-17T05:21:58.963Z,1.48
2023-05-17T05:24:26.085Z,1.95
2023-05-17T05:26:53.211Z,2.13
2023-05-17T05:29:20.279Z,1.70
2023-05-17T05:50:35.233Z,1.80
2023-05-17T05:53:10.880Z,1.70
2023-05-17T05:55:47.107Z,2.13
2023-05-17T05:58:14.464Z,1.77
2023-05-17T06:00:44.771Z,1.90
2023-05-17T06:03:12.075Z,1.73
2023-05-17T06:08:14.891Z,1.80
2023-05-17T06:15:59.998Z,1.70
2023-05-17T06:18:27.162Z,1.63
2023-05-17T06:20:54.318Z,1.90
2023-05-17T06:23:21.422Z,1.80
2023-05-17T06:25:48.461Z,1.50
2023-05-17T06:28:15.681Z,1.60
2023-05-17T06:30:43.324Z,1.45
2023-05-17T06:33:12.980Z,1.80
2023-05-17T06:35:54.807Z,1.50
2023-05-17T06:38:23.950Z,1.58
2023-05-17T06:40:55.708Z,1.60
2023-05-17T06:43:23.517Z,1.70
2023-05-17T06:45:51.645Z,1.83
2023-05-17T06:50:54.512Z,1.63
2023-05-17T06:53:21.652Z,1.85
2023-05-17T06:58:52.022Z,2.00
2023-05-17T07:26:33.232Z,1.33
2023-05-17T07:34:45.919Z,2.00
2023-05-17T07:37:13.118Z,1.60
2023-05-17T07:39:40.446Z,1.65
2023-05-17T07:42:07.943Z,2.38
2023-05-17T07:44:35.097Z,1.75
2023-05-17T07:47:02.198Z,1.73
2023-05-17T07:49:31.971Z,1.13
2023-05-17T07:51:59.078Z,1.30
2023-05-17T07:54:30.053Z,1.30
2023-05-17T07:56:57.293Z,1.60
2023-05-17T08:10:05.263Z,1.42
2023-05-17T08:15:08.335Z,1.35
2023-05-17T08:17:35.357Z,1.33
2023-05-17T08:20:02.610Z,1.40
2023-05-17T08:22:29.908Z,1.20
2023-05-17T08:24:56.901Z,1.50
2023-05-17T08:27:25.668Z,1.30
2023-05-17T08:29:54.980Z,1.30
2023-05-17T08:32:24.539Z,1.40
2023-05-17T08:34:51.931Z,1.30
2023-05-17T08:37:19.365Z,1.25
2023-05-17T08:39:46.813Z,1.23
2023-05-17T08:42:14.994Z,1.63
2023-05-17T08:44:42.249Z,1.35
2023-05-17T08:47:12.126Z,1.20
2023-05-17T08:49:40.864Z,1.27
2023-05-17T08:52:10.551Z,1.40
2023-05-17T08:54:37.909Z,1.23
2023-05-17T08:57:06.890Z,1.50
2023-05-17T08:59:35.443Z,1.20
2023-05-17T09:02:02.667Z,1.60
2023-05-17T09:04:33.088Z,1.00
2023-05-17T09:07:00.299Z,1.20
2023-05-17T09:09:27.938Z,1.45
2023-05-17T09:11:55.488Z,1.30
2023-05-17T09:14:22.547Z,1.20
2023-05-17T09:16:58.305Z,1.63
2023-05-17T09:19:25.844Z,1.20
2023-05-17T09:21:55.302Z,1.77
2023-05-17T09:24:30.295Z,1.30
2023-05-17T09:27:04.327Z,1.70
2023-05-17T09:32:17.865Z,1.65
2023-05-17T09:34:47.084Z,1.85
2023-05-17T09:37:17.216Z,1.75
2023-05-17T09:39:48.059Z,2.05
2023-05-17T09:47:45.850Z,1.95
2023-05-17T09:55:31.703Z,2.00
2023-05-17T09:58:04.171Z,1.75
2023-05-17T10:00:32.417Z,2.10
2023-05-17T10:03:00.353Z,2.00
2023-05-17T10:05:28.051Z,1.75
2023-05-17T10:07:56.992Z,1.88
2023-05-17T10:10:24.342Z,2.10
2023-05-17T10:12:52.644Z,2.10
2023-05-17T10:15:21.081Z,2.15
2023-05-17T10:17:48.374Z,2.00
2023-05-17T10:20:17.653Z,2.30
2023-05-17T10:22:45.815Z,2.38
2023-05-17T10:25:13.724Z,2.13
2023-05-17T10:27:41.999Z,2.30
2023-05-17T10:30:10.329Z,2.42
2023-05-17T10:32:38.441Z,2.60
2023-05-17T10:35:11.819Z,2.53
2023-05-17T10:37:40.737Z,2.33
2023-05-17T10:40:15.229Z,2.40
2023-05-17T10:42:46.951Z,2.15
2023-05-17T10:45:14.906Z,2.15
2023-05-17T10:47:42.851Z,2.30
2023-05-17T10:50:15.323Z,2.40
2023-05-17T10:52:49.769Z,2.45
2023-05-17T10:55:25.153Z,2.75
2023-05-17T10:58:11.691Z,2.78
2023-05-17T11:00:43.054Z,3.03
2023-05-17T11:03:26.324Z,2.90
2023-05-17T14:50:38.939Z,5.03
2023-05-17T14:53:06.651Z,5.85
2023-05-17T14:55:33.653Z,6.38
2023-05-17T14:58:02.000Z,7.47
2023-05-17T15:00:29.610Z,5.43
2023-05-17T15:02:56.925Z,5.95
2023-05-17T15:05:24.616Z,5.38
2023-05-17T15:10:27.152Z,5.35
2023-05-17T16:21:59.955Z,2.92
2023-05-17T16:36:50.797Z,2.50
2023-05-17T16:39:18.736Z,2.65
2023-05-17T18:56:25.212Z,3.42
2023-05-17T18:58:55.487Z,2.75
2023-05-17T19:01:22.587Z,2.78
2023-05-17T19:03:56.891Z,3.28
2023-05-17T19:06:25.258Z,3.17
2023-05-17T19:08:52.391Z,3.53
2023-05-17T19:11:19.476Z,2.80
2023-05-17T19:13:46.538Z,3.78
2023-05-17T19:16:15.614Z,3.63
2023-05-17T19:18:42.729Z,3.00
2023-05-17T19:21:09.803Z,3.72
2023-05-17T19:23:36.961Z,3.00
2023-05-17T19:26:04.200Z,3.50
2023-05-17T19:28:33.161Z,3.90
2023-05-17T19:31:00.294Z,4.22
2023-05-17T19:33:27.261Z,3.72
2023-05-17T19:35:54.237Z,3.30
2023-05-17T19:38:21.392Z,3.83
2023-05-17T19:40:48.571Z,3.53
2023-05-17T19:43:16.009Z,3.92
2023-05-17T19:45:43.437Z,3.83
2023-05-17T19:48:10.366Z,4.28
2023-05-17T19:50:37.640Z,3.97
2023-05-17T19:53:04.701Z,4.60
2023-05-17T19:55:32.095Z,4.13
2023-05-17T19:57:59.132Z,4.65
2023-05-17T20:00:26.283Z,5.28
2023-05-17T20:02:53.344Z,4.45
2023-05-17T20:05:20.723Z,4.85
2023-05-17T20:07:47.929Z,4.35
2023-05-17T20:10:14.907Z,4.70
2023-05-17T20:12:42.104Z,4.70
2023-05-17T20:15:09.821Z,3.97
2023-05-17T20:17:36.930Z,4.45
2023-05-17T20:20:05.376Z,4.43
2023-05-17T20:22:33.356Z,4.85
2023-05-17T20:25:00.491Z,4.50
2023-05-17T20:27:27.907Z,5.32
2023-05-17T20:29:54.910Z,4.85
2023-05-17T20:32:21.920Z,5.10
2023-05-17T20:34:48.983Z,4.90
2023-05-17T20:37:16.436Z,5.40
2023-05-17T20:39:43.697Z,5.93
2023-05-17T20:42:11.026Z,4.80
2023-05-17T20:44:37.994Z,4.95
2023-05-17T20:47:06.062Z,5.45
2023-05-17T20:49:33.127Z,5.90
2023-05-17T20:52:03.595Z,5.95
2023-05-17T20:54:30.875Z,5.78
2023-05-17T20:56:58.603Z,5.07
2023-05-17T20:59:26.600Z,5.30
2023-05-17T21:01:53.811Z,5.65
2023-05-17T21:04:21.050Z,5.25
2023-05-17T21:06:47.992Z,4.40
2023-05-17T21:09:15.083Z,4.65
2023-05-17T21:11:42.810Z,5.45
2023-05-17T21:14:09.983Z,4.55
2023-05-17T21:16:37.216Z,4.32
2023-05-17T21:19:04.474Z,5.50
2023-05-17T21:21:31.516Z,4.60
2023-05-17T21:23:58.503Z,3.83
2023-05-17T21:28:54.692Z,4.03
2023-05-17T21:31:21.778Z,4.50
2023-05-17T21:33:49.847Z,5.50
2023-05-17T21:36:16.960Z,4.28
2023-05-17T21:38:44.171Z,4.45
2023-05-17T21:41:11.597Z,4.70
2023-05-17T21:43:38.867Z,4.53
2023-05-17T21:46:05.974Z,4.22
2023-05-17T21:48:33.039Z,5.35
2023-05-17T21:50:59.995Z,4.13
2023-05-17T21:53:26.956Z,4.28
2023-05-17T21:56:01.888Z,4.43
2023-05-17T21:58:31.019Z,4.95
2023-05-17T22:00:58.624Z,5.18
2023-05-17T22:03:26.059Z,4.47
2023-05-17T22:05:53.205Z,5.20
2023-05-17T22:08:20.304Z,4.00
2023-05-17T22:10:47.661Z,5.22
2023-05-17T22:13:21.844Z,5.47
2023-05-17T22:15:48.861Z,4.15
2023-05-17T22:26:15.284Z,4.57
2023-05-17T22:28:42.503Z,6.38
2023-05-17T22:31:09.554Z,4.68
2023-05-17T22:33:36.663Z,5.22
2023-05-17T22:36:04.337Z,4.43
2023-05-17T22:38:31.470Z,4.72
2023-05-17T22:40:58.695Z,4.65
2023-05-17T22:43:26.154Z,4.97
2023-05-17T22:45:53.120Z,4.35
2023-05-17T22:48:20.283Z,4.78
2023-05-17T22:56:32.552Z,4.57
2023-05-17T22:58:59.521Z,5.50
2023-05-17T23:01:26.850Z,4.47
2023-05-17T23:03:53.924Z,4.25
2023-05-17T23:06:24.123Z,5.10
2023-05-17T23:08:53.021Z,3.97
2023-05-17T23:11:20.224Z,5.07
2023-05-17T23:13:47.176Z,5.07
2023-05-17T23:16:14.221Z,4.72
2023-05-17T23:18:41.657Z,5.70
2023-05-17T23:21:09.612Z,5.72
2023-05-17T23:23:38.159Z,6.28
2023-05-17T23:26:06.094Z,5.93
2023-05-17T23:28:33.322Z,5.30
2023-05-17T23:31:01.636Z,5.95
2023-05-17T23:33:31.346Z,6.07
2023-05-17T23:35:58.966Z,4.75
2023-05-17T23:38:26.823Z,4.80
2023-05-17T23:40:54.350Z,4.55
2023-05-17T23:43:21.399Z,5.80
2023-05-17T23:45:48.535Z,4.55
2023-05-17T23:48:16.262Z,5.20
2023-05-17T23:50:43.300Z,5.97
2023-05-17T23:53:10.414Z,4.68
2023-05-17T23:55:38.808Z,4.25
2023-05-17T23:58:06.087Z,5.13
